createdAt,value
2018-06-15T03:52:11.604Z,9.70
2018-06-15T03:57:14.218Z,8.40
2018-06-15T04:02:17.102Z,8.53
2018-06-15T04:07:19.779Z,7.30
2018-06-15T04:12:23.308Z,13.97
2018-06-15T04:17:25.896Z,10.30
2018-06-15T04:22:28.486Z,7.67
2018-06-15T04:27:31.094Z,6.80
2018-06-15T04:32:33.723Z,6.80
2018-06-15T04:37:36.324Z,7.27
2018-06-15T04:42:38.963Z,8.27
2018-06-15T04:47:41.914Z,9.83
2018-06-15T04:52:44.526Z,8.60
2018-06-15T04:57:47.206Z,7.10
2018-06-15T05:02:49.810Z,9.67
2018-06-15T05:07:53.371Z,7.87
2018-06-15T05:12:55.966Z,6.40
2018-06-15T05:17:58.671Z,6.63
2018-06-15T05:23:01.299Z,8.07
2018-06-15T05:28:03.980Z,7.43
2018-06-15T05:33:06.606Z,9.40
2018-06-15T05:38:09.259Z,7.67
2018-06-15T05:43:11.892Z,6.60
2018-06-15T05:48:15.672Z,9.33
2018-06-15T05:53:19.559Z,11.63
2018-06-15T05:58:22.225Z,9.03
2018-06-15T06:03:24.838Z,6.87
2018-06-15T06:08:29.750Z,9.13
2018-06-15T06:13:32.550Z,13.17
2018-06-15T06:18:35.199Z,13.30
2018-06-15T06:23:38.102Z,8.57
2018-06-15T06:28:40.736Z,12.97
2018-06-15T06:33:43.325Z,19.03
2018-06-15T06:38:45.934Z,18.57
2018-06-15T06:43:49.117Z,16.17
2018-06-15T06:48:51.735Z,14.20
2018-06-15T06:53:54.379Z,11.80
2018-06-15T06:58:57.071Z,8.63
2018-06-15T07:03:59.690Z,9.00
2018-06-15T07:09:03.010Z,11.20
2018-06-15T07:14:05.760Z,13.97
2018-06-15T07:19:09.312Z,7.53
2018-06-15T07:24:11.938Z,7.07
2018-06-15T07:29:14.587Z,8.27
2018-06-15T07:34:17.173Z,8.50
2018-06-15T07:39:20.210Z,7.93
2018-06-15T07:44:22.826Z,9.50
2018-06-15T07:49:25.427Z,7.87
2018-06-15T07:54:28.020Z,8.90
2018-06-15T07:59:30.650Z,8.93
2018-06-15T08:04:33.274Z,8.00
2018-06-15T08:09:35.903Z,11.87
2018-06-15T08:14:38.522Z,8.33
2018-06-15T08:19:41.163Z,7.70
2018-06-15T08:24:43.779Z,9.27
2018-06-15T08:29:46.423Z,11.20
2018-06-15T08:34:49.038Z,9.37
2018-06-15T08:39:51.647Z,10.90
2018-06-15T08:44:54.315Z,9.43
2018-06-15T08:49:56.935Z,9.97
2018-06-15T08:54:59.598Z,9.57
2018-06-15T09:00:02.228Z,9.90
2018-06-15T09:05:05.458Z,8.10
2018-06-15T09:10:08.188Z,7.50
2018-06-15T09:15:10.942Z,9.20
2018-06-15T09:20:13.575Z,7.03
2018-06-15T09:25:16.314Z,7.03
2018-06-15T09:30:18.922Z,7.17
2018-06-15T09:35:21.543Z,7.93
2018-06-15T09:40:24.231Z,10.63
2018-06-15T09:45:26.863Z,8.07
2018-06-15T09:50:29.695Z,8.47
2018-06-15T09:55:32.614Z,7.50
2018-06-15T10:00:40.895Z,6.53
2018-06-15T10:05:43.679Z,6.53
2018-06-15T10:10:46.363Z,5.13
2018-06-15T10:15:49.012Z,5.70
2018-06-15T10:20:51.647Z,7.73
2018-06-15T10:25:54.303Z,6.23
2018-06-15T10:30:56.970Z,9.40
2018-06-15T10:35:59.592Z,7.27
2018-06-15T10:41:02.199Z,5.93
2018-06-15T10:46:04.793Z,7.30
2018-06-15T10:51:07.670Z,7.67
2018-06-15T10:56:10.837Z,5.50
2018-06-15T11:01:13.638Z,5.90
2018-06-15T11:06:16.286Z,5.50
2018-06-15T11:11:22.583Z,5.43
2018-06-15T11:16:25.121Z,6.87
2018-06-15T11:21:27.824Z,5.70
2018-06-15T11:26:30.435Z,6.60
2018-06-15T11:31:33.085Z,6.47
2018-06-15T11:36:35.731Z,5.93
2018-06-15T11:41:38.436Z,6.73
2018-06-15T11:46:41.067Z,5.10
2018-06-15T11:51:43.838Z,5.07
2018-06-15T11:56:46.549Z,5.17
2018-06-15T12:01:49.254Z,4.57
2018-06-15T12:06:51.913Z,6.27
2018-06-15T12:11:54.564Z,8.70
2018-06-15T12:16:57.200Z,7.20
2018-06-15T12:21:59.891Z,5.60
2018-06-15T12:27:02.824Z,4.53
2018-06-15T12:32:05.474Z,4.25
2018-06-15T12:37:08.427Z,6.83
2018-06-15T12:42:11.057Z,3.70
2018-06-15T12:47:13.735Z,5.17
2018-06-15T12:52:16.342Z,5.17
2018-06-15T12:57:18.984Z,4.37
2018-06-15T13:02:21.812Z,4.90
2018-06-15T13:07:24.521Z,4.93
2018-06-15T13:12:27.378Z,6.17
2018-06-15T13:17:30.484Z,5.70
2018-06-15T13:22:33.139Z,4.93
2018-06-15T13:27:35.815Z,4.47
2018-06-15T13:32:38.450Z,4.70
2018-06-15T13:37:41.057Z,4.93
2018-06-15T13:42:43.734Z,4.70
2018-06-15T13:47:46.341Z,7.27
2018-06-15T13:52:49.395Z,4.53
2018-06-15T13:57:52.032Z,4.73
2018-06-15T14:02:54.731Z,7.27
2018-06-15T14:07:57.378Z,5.40
2018-06-15T14:13:00.136Z,4.47
2018-06-15T14:18:07.834Z,5.37
2018-06-15T14:23:10.480Z,4.45
2018-06-15T14:28:13.107Z,3.83
2018-06-15T14:33:15.766Z,3.60
2018-06-15T14:38:18.411Z,3.67
2018-06-15T14:43:21.056Z,3.75
2018-06-15T14:48:25.717Z,4.22
2018-06-15T14:53:28.326Z,3.77
2018-06-15T14:58:31.155Z,3.92
2018-06-15T15:03:33.731Z,4.67
2018-06-15T15:08:36.346Z,4.85
2018-06-15T15:13:38.989Z,2.95
2018-06-15T15:18:41.706Z,4.10
2018-06-15T15:23:44.343Z,2.75
2018-06-15T15:28:47.002Z,3.00
2018-06-15T15:33:49.759Z,4.20
2018-06-15T15:38:52.375Z,3.12
2018-06-15T15:43:55.027Z,5.70
2018-06-15T15:48:57.639Z,3.60
2018-06-15T15:54:01.093Z,3.02
2018-06-15T15:59:03.878Z,3.87
2018-06-15T16:04:06.658Z,3.42
2018-06-15T16:09:09.795Z,3.98
2018-06-15T16:14:12.416Z,2.50
2018-06-15T16:19:15.064Z,3.05
2018-06-15T16:24:17.819Z,2.72
2018-06-15T16:29:20.494Z,5.37
2018-06-15T16:34:23.155Z,4.42
2018-06-15T16:39:29.203Z,3.08
2018-06-15T16:44:32.188Z,3.20
2018-06-15T16:49:34.834Z,5.55
2018-06-15T16:54:37.461Z,3.17
2018-06-15T16:59:40.083Z,6.95
2018-06-15T17:04:42.822Z,3.27
2018-06-15T17:09:45.561Z,2.67
2018-06-15T17:14:48.183Z,2.90
2018-06-15T17:19:50.827Z,3.08
2018-06-15T17:24:53.779Z,4.03
2018-06-15T17:29:56.436Z,4.33
2018-06-15T17:34:59.521Z,2.50
2018-06-15T17:40:02.434Z,3.20
2018-06-15T17:45:05.194Z,2.80
2018-06-15T17:50:07.871Z,3.50
2018-06-15T17:55:10.559Z,4.37
2018-06-15T18:00:13.174Z,5.00
2018-06-15T18:05:15.787Z,3.97
2018-06-15T18:10:18.416Z,6.80
2018-06-15T18:15:21.201Z,3.10
2018-06-15T18:20:23.956Z,5.00
2018-06-15T18:25:26.580Z,7.37
2018-06-15T18:30:29.371Z,8.73
2018-06-15T18:35:31.990Z,4.73
2018-06-15T18:40:34.706Z,5.70
2018-06-15T18:45:37.343Z,5.50
2018-06-15T18:50:39.947Z,8.27
2018-06-15T18:55:42.605Z,3.40
2018-06-15T19:00:45.343Z,5.10
2018-06-15T19:05:48.082Z,4.30
2018-06-15T19:10:50.963Z,3.93
2018-06-15T19:15:53.691Z,8.17
2018-06-15T19:20:56.359Z,4.03
2018-06-15T19:25:59.038Z,4.73
2018-06-15T19:31:02.265Z,3.70
2018-06-15T19:36:04.928Z,3.97
2018-06-15T19:41:07.848Z,7.60
2018-06-15T19:46:10.491Z,4.97
2018-06-15T19:51:13.127Z,9.77
2018-06-15T19:56:16.673Z,6.70
2018-06-15T20:01:19.378Z,5.47
2018-06-15T20:06:22.097Z,8.17
2018-06-15T20:11:24.754Z,4.77
2018-06-15T20:16:27.509Z,8.33
2018-06-15T20:21:30.469Z,4.77
2018-06-15T20:26:33.115Z,6.33
2018-06-15T20:31:35.743Z,4.87
2018-06-15T20:36:38.407Z,5.73
2018-06-15T20:41:41.049Z,5.00
2018-06-15T20:46:43.680Z,4.63
2018-06-15T20:51:46.312Z,5.20
2018-06-15T20:56:48.991Z,5.60
2018-06-15T21:01:51.635Z,5.00
2018-06-15T21:06:54.433Z,5.33
2018-06-15T21:11:57.072Z,6.90
2018-06-15T21:16:59.746Z,6.47
2018-06-15T21:22:02.414Z,5.27
2018-06-15T21:27:05.167Z,6.80
2018-06-15T21:32:07.848Z,5.87
2018-06-15T21:37:10.475Z,6.47
2018-06-15T21:42:14.086Z,5.07
2018-06-15T21:47:16.716Z,7.40
2018-06-15T21:52:19.341Z,5.90
2018-06-15T21:57:22.181Z,6.00
2018-06-15T22:02:25.476Z,5.10
2018-06-15T22:07:28.148Z,7.30
2018-06-15T22:12:30.782Z,6.30
2018-06-15T22:17:33.397Z,8.67
2018-06-15T22:22:36.027Z,4.93
2018-06-15T22:27:38.682Z,6.40
2018-06-15T22:32:41.355Z,5.23
2018-06-15T22:37:44.014Z,5.50
2018-06-15T22:42:46.625Z,7.00
2018-06-15T22:47:49.275Z,5.03
2018-06-15T22:52:51.900Z,5.00
2018-06-15T22:57:54.527Z,6.90
2018-06-15T23:02:57.150Z,6.27
2018-06-15T23:07:59.768Z,4.77
2018-06-15T23:13:02.359Z,6.57
2018-06-15T23:18:05.065Z,4.90
2018-06-15T23:23:07.703Z,4.63
2018-06-15T23:28:10.308Z,5.50
2018-06-15T23:33:13.018Z,5.73
2018-06-15T23:38:15.633Z,9.03
2018-06-15T23:43:18.302Z,5.73
2018-06-15T23:48:20.915Z,5.50
2018-06-15T23:53:23.521Z,5.87
2018-06-15T23:58:26.138Z,4.07
